Time;durP1;ratioP1;P1;durP2;ratioP2;P2;SDS_P1;SDS_P2;PMS_P1;PMS_P2;Temp;Humidity;BMP_temperature;BMP_pressure;BME280_temperature;BME280_humidity;BME280_pressure;Samples;Min_cycle;Max_cycle;Signal;HPM_P1;HPM_P2
2022/08/06 00:00:15;;;;;;;2.75;0.90;;;17.30;51.20;;;;;;4901860;29;20087;-77
2022/08/06 00:02:41;;;;;;;2.70;0.77;;;17.30;51.30;;;;;;4901493;29;20048;-78
2022/08/06 00:05:07;;;;;;;2.58;0.70;;;17.30;51.40;;;;;;4901686;29;20039;-77
2022/08/06 00:07:34;;;;;;;2.63;1.00;;;17.20;51.60;;;;;;4901653;29;20028;-78
2022/08/06 00:10:00;;;;;;;2.65;0.90;;;17.20;51.80;;;;;;4918655;29;20058;-77
2022/08/06 00:12:27;;;;;;;1.42;0.80;;;17.10;51.80;;;;;;4938194;29;20075;-78
2022/08/06 00:14:53;;;;;;;2.28;0.88;;;17.20;51.70;;;;;;4901506;29;20476;-76
2022/08/06 00:17:20;;;;;;;1.95;0.95;;;17.20;51.20;;;;;;4900214;29;20080;-78
2022/08/06 00:19:45;;;;;;;2.28;0.80;;;17.20;51.40;;;;;;4901267;29;20167;-77
2022/08/06 00:22:11;;;;;;;1.17;0.70;;;17.20;51.40;;;;;;4901478;29;20052;-77
2022/08/06 00:24:37;;;;;;;0.75;0.52;;;17.20;51.30;;;;;;4901234;29;20043;-78
2022/08/06 00:27:02;;;;;;;1.30;0.77;;;17.20;51.00;;;;;;4901249;29;20032;-77
2022/08/06 00:29:28;;;;;;;0.90;0.60;;;17.20;50.90;;;;;;4901486;29;20029;-77
2022/08/06 00:31:56;;;;;;;3.92;1.10;;;17.20;50.90;;;;;;4901134;29;20432;-77
2022/08/06 00:34:22;;;;;;;2.30;0.80;;;17.20;51.00;;;;;;4900179;29;20509;-78
2022/08/06 00:36:48;;;;;;;1.60;0.65;;;17.10;51.10;;;;;;4900930;29;20032;-77
2022/08/06 00:39:13;;;;;;;3.50;0.90;;;17.00;51.00;;;;;;4901213;29;20039;-77
2022/08/06 00:41:39;;;;;;;1.92;0.70;;;17.10;50.90;;;;;;4900016;29;20032;-78
2022/08/06 00:44:05;;;;;;;1.45;0.80;;;17.10;51.00;;;;;;4900980;29;20036;-77
2022/08/06 00:46:31;;;;;;;3.00;0.80;;;17.00;51.10;;;;;;4900831;29;20020;-78
2022/08/06 00:48:57;;;;;;;2.25;1.15;;;17.00;50.90;;;;;;4899861;29;20093;-77
2022/08/06 00:51:23;;;;;;;2.00;0.80;;;17.00;51.10;;;;;;4900945;29;20032;-77
2022/08/06 00:53:50;;;;;;;2.75;1.15;;;17.00;51.00;;;;;;4900740;29;20117;-78
2022/08/06 00:56:16;;;;;;;2.45;0.90;;;16.90;51.00;;;;;;4900860;29;20108;-78
2022/08/06 00:58:42;;;;;;;4.45;1.35;;;16.80;51.10;;;;;;4900750;29;20040;-78
2022/08/06 01:01:09;;;;;;;2.75;1.02;;;16.80;51.50;;;;;;4900613;29;20033;-77
2022/08/06 01:03:34;;;;;;;2.33;0.95;;;16.80;51.40;;;;;;4914086;29;20044;-77
2022/08/06 01:06:00;;;;;;;1.67;0.52;;;16.80;51.40;;;;;;4900588;29;20108;-77
2022/08/06 01:08:25;;;;;;;2.92;0.85;;;16.70;51.80;;;;;;4900671;29;20120;-78
2022/08/06 01:10:51;;;;;;;2.78;1.00;;;16.60;52.00;;;;;;4930888;29;20028;-78
2022/08/06 01:13:17;;;;;;;1.25;0.60;;;16.60;52.00;;;;;;4938259;29;20031;-78
2022/08/06 01:15:51;;;;;;;2.33;0.80;;;16.60;52.20;;;;;;4914319;29;20040;-78
2022/08/06 01:18:25;;;;;;;2.45;0.95;;;16.60;52.10;;;;;;4900618;29;20097;-77
2022/08/06 01:21:01;;;;;;;3.55;0.90;;;16.60;52.20;;;;;;4900581;29;20029;-77
2022/08/06 01:23:38;;;;;;;2.45;0.68;;;16.60;51.90;;;;;;4915128;29;20040;-78
2022/08/06 01:26:07;;;;;;;2.05;0.75;;;16.50;52.30;;;;;;4916375;29;20032;-78
2022/08/06 01:28:45;;;;;;;3.45;0.82;;;16.50;52.30;;;;;;4900369;29;20068;-77
2022/08/06 01:31:16;;;;;;;2.30;0.90;;;16.50;52.20;;;;;;4900330;29;20059;-77
2022/08/06 01:33:51;;;;;;;3.15;1.00;;;16.50;52.30;;;;;;4900003;29;20025;-78
2022/08/06 01:36:23;;;;;;;2.55;0.85;;;16.40;52.60;;;;;;4900156;29;20037;-77
2022/08/06 01:38:52;;;;;;;2.25;1.10;;;16.40;52.70;;;;;;4900068;29;20563;-78
2022/08/06 01:41:40;;;;;;;1.80;0.80;;;16.30;52.80;;;;;;4900117;29;20037;-77
2022/08/06 01:44:22;;;;;;;5.50;0.70;;;16.30;52.90;;;;;;4899308;29;20040;-77
2022/08/06 01:46:56;;;;;;;1.02;0.68;;;16.20;53.20;;;;;;4899858;29;20484;-77
2022/08/06 01:49:25;;;;;;;2.17;0.85;;;16.20;53.30;;;;;;4900244;29;20187;-77
2022/08/06 01:51:53;;;;;;;1.35;0.90;;;16.20;53.60;;;;;;4900301;29;20111;-77
2022/08/06 01:54:21;;;;;;;2.22;0.80;;;16.10;53.70;;;;;;4900006;29;20083;-77
2022/08/06 01:57:06;;;;;;;2.10;0.85;;;16.00;54.00;;;;;;4899935;29;20084;-77
2022/08/06 01:59:34;;;;;;;2.00;0.80;;;16.00;54.20;;;;;;4900043;29;20032;-77
2022/08/06 02:02:04;;;;;;;5.53;0.80;;;16.00;53.80;;;;;;4900097;29;20060;-78
2022/08/06 02:04:40;;;;;;;1.30;0.90;;;16.10;54.00;;;;;;4900053;29;20033;-77
2022/08/06 02:07:09;;;;;;;3.85;1.30;;;16.00;54.20;;;;;;4900319;29;20100;-78
2022/08/06 02:09:36;;;;;;;1.15;0.82;;;16.00;54.20;;;;;;4910125;29;20020;-78
2022/08/06 02:12:08;;;;;;;1.50;0.90;;;15.90;54.50;;;;;;4920766;29;20028;-77
2022/08/06 02:14:39;;;;;;;1.90;0.70;;;16.00;54.40;;;;;;4899840;29;20031;-77
2022/08/06 02:17:06;;;;;;;2.30;1.00;;;15.90;54.30;;;;;;4899967;29;20033;-77
2022/08/06 02:19:54;;;;;;;1.88;0.68;;;15.90;54.60;;;;;;4914701;29;20092;-77
2022/08/06 02:22:20;;;;;;;1.30;0.80;;;15.90;54.60;;;;;;4899705;29;20052;-78
2022/08/06 02:24:46;;;;;;;2.05;1.20;;;15.90;54.70;;;;;;4899883;29;20039;-78
2022/08/06 02:27:14;;;;;;;3.10;1.13;;;15.90;54.90;;;;;;4899500;29;20028;-77
2022/08/06 02:29:44;;;;;;;1.77;0.93;;;15.90;54.60;;;;;;4898710;29;20052;-78
2022/08/06 02:32:11;;;;;;;2.92;1.05;;;15.90;54.70;;;;;;4899672;29;20112;-78
2022/08/06 02:34:37;;;;;;;3.97;1.00;;;15.90;54.50;;;;;;4913743;29;20565;-78
2022/08/06 02:37:27;;;;;;;2.67;1.10;;;16.00;54.30;;;;;;4898759;29;20040;-77
2022/08/06 02:39:59;;;;;;;2.13;0.93;;;15.90;54.50;;;;;;4892437;29;20053;-78
2022/08/06 02:42:49;;;;;;;1.30;1.08;;;16.00;54.60;;;;;;4899869;29;20100;-77
2022/08/06 02:45:21;;;;;;;1.42;0.90;;;15.90;54.70;;;;;;4899768;29;20123;-77
2022/08/06 02:48:13;;;;;;;2.30;1.13;;;15.90;54.80;;;;;;4914116;29;20053;-77
2022/08/06 02:50:42;;;;;;;2.67;1.20;;;15.90;54.70;;;;;;4899635;29;20412;-77
2022/08/06 02:53:11;;;;;;;1.63;0.82;;;15.80;54.70;;;;;;4917495;29;20124;-78
2022/08/06 02:55:42;;;;;;;3.28;1.00;;;15.80;54.90;;;;;;4902966;29;20088;-77
2022/08/06 02:58:12;;;;;;;1.55;1.00;;;15.80;54.90;;;;;;4902954;29;20076;-78
2022/08/06 03:00:40;;;;;;;;;;;15.80;55.10;;;;;;4903200;29;20032;-77
2022/08/06 03:03:07;;;;;;;2.25;1.02;;;15.80;54.90;;;;;;4902893;29;20387;-77
2022/08/06 03:05:34;;;;;;;2.00;1.00;;;15.80;55.10;;;;;;4902851;29;20374;-77
2022/08/06 03:08:01;;;;;;;2.58;0.80;;;15.80;55.30;;;;;;4902453;29;20033;-77
2022/08/06 03:10:29;;;;;;;1.92;1.00;;;15.70;55.40;;;;;;4907707;29;20060;-77
2022/08/06 03:12:57;;;;;;;3.05;0.95;;;15.70;55.80;;;;;;4902704;29;20025;-77
2022/08/06 03:15:24;;;;;;;1.63;1.00;;;15.60;55.60;;;;;;4902400;29;20036;-77
2022/08/06 03:17:51;;;;;;;2.35;0.98;;;15.60;55.90;;;;;;4902632;29;20067;-77
2022/08/06 03:20:20;;;;;;;1.63;1.23;;;15.60;55.80;;;;;;4902677;29;20568;-77
2022/08/06 03:22:52;;;;;;;1.98;1.00;;;15.60;55.90;;;;;;4910077;29;20083;-77
2022/08/06 03:25:18;;;;;;;5.70;1.02;;;15.50;56.00;;;;;;4902283;29;20029;-77
2022/08/06 03:27:45;;;;;;;1.23;0.90;;;15.50;56.10;;;;;;4902283;29;20040;-78
2022/08/06 03:30:16;;;;;;;3.05;1.30;;;15.50;56.10;;;;;;4902550;29;20017;-78
2022/08/06 03:32:42;;;;;;;3.40;1.20;;;15.50;56.30;;;;;;4909819;29;20040;-78
2022/08/06 03:35:09;;;;;;;1.70;1.00;;;15.50;56.30;;;;;;4902276;29;20060;-77
2022/08/06 03:37:36;;;;;;;1.60;1.00;;;15.50;56.20;;;;;;4902006;29;20110;-77
2022/08/06 03:40:04;;;;;;;3.45;1.50;;;15.40;56.40;;;;;;4902124;29;20036;-78
2022/08/06 03:42:31;;;;;;;1.63;0.95;;;15.40;56.80;;;;;;4902009;29;20068;-78
2022/08/06 03:45:08;;;;;;;3.40;1.30;;;15.40;56.70;;;;;;4916763;29;20028;-77
2022/08/06 03:47:40;;;;;;;4.35;1.23;;;15.30;56.90;;;;;;4902230;29;20025;-78
2022/08/06 03:50:15;;;;;;;5.07;1.50;;;15.40;57.20;;;;;;4902094;29;20467;-77
2022/08/06 03:52:55;;;;;;;3.75;1.63;;;15.30;57.30;;;;;;4915401;29;20040;-78
2022/08/06 03:55:24;;;;;;;1.45;0.75;;;15.30;57.30;;;;;;4901993;29;20075;-77
2022/08/06 03:57:55;;;;;;;2.37;1.10;;;15.30;57.40;;;;;;4902024;29;20040;-77
2022/08/06 04:00:24;;;;;;;3.33;1.00;;;15.30;57.60;;;;;;4901404;29;20032;-78
2022/08/06 04:02:52;;;;;;;1.15;0.90;;;15.30;57.70;;;;;;4901582;29;20052;-77
2022/08/06 04:05:23;;;;;;;4.28;1.27;;;15.30;57.60;;;;;;4901433;29;20051;-77
2022/08/06 04:08:00;;;;;;;9.20;1.27;;;15.30;57.80;;;;;;4901813;29;20017;-77
2022/08/06 04:10:50;;;;;;;1.33;0.93;;;15.20;58.10;;;;;;4925712;29;20756;-78
2022/08/06 04:13:19;;;;;;;4.97;1.15;;;15.20;58.20;;;;;;4908872;29;20547;-77
2022/08/06 04:15:45;;;;;;;6.32;1.45;;;15.20;58.50;;;;;;4901400;29;20097;-78
2022/08/06 04:18:15;;;;;;;2.05;1.23;;;15.20;58.60;;;;;;4901549;29;20127;-78
2022/08/06 04:20:49;;;;;;;4.75;1.45;;;15.20;58.80;;;;;;4901054;29;20559;-77
2022/08/06 04:23:14;;;;;;;3.63;1.05;;;15.10;58.70;;;;;;4915892;29;20048;-77
2022/08/06 04:25:49;;;;;;;2.28;1.15;;;15.10;59.10;;;;;;4901401;29;20040;-78
2022/08/06 04:28:16;;;;;;;2.03;1.15;;;15.10;59.20;;;;;;4901470;29;20024;-77
2022/08/06 04:30:45;;;;;;;1.55;0.93;;;15.00;59.70;;;;;;4901133;29;20029;-77
2022/08/06 04:33:13;;;;;;;1.25;0.90;;;15.10;59.80;;;;;;4901259;29;20112;-78
2022/08/06 04:35:41;;;;;;;3.30;1.40;;;15.00;59.90;;;;;;4900936;29;20484;-78
2022/08/06 04:38:08;;;;;;;3.17;1.00;;;15.00;60.20;;;;;;4915472;29;20386;-78
2022/08/06 04:40:36;;;;;;;6.75;1.20;;;14.90;60.50;;;;;;4901240;29;20480;-77
2022/08/06 04:43:05;;;;;;;5.90;1.70;;;14.90;60.30;;;;;;4900907;29;20032;-77
2022/08/06 04:45:31;;;;;;;2.35;1.02;;;14.90;60.20;;;;;;4915639;29;20064;-77
2022/08/06 04:48:08;;;;;;;;;;;;;;;;;;;;;
2022/08/06 04:50:35;;;;;;;3.63;1.52;;;14.90;60.70;;;;;;4900977;29;20497;-77
2022/08/06 04:53:27;;;;;;;2.58;1.35;;;14.90;60.60;;;;;;4900854;29;20029;-78
2022/08/06 04:55:52;;;;;;;2.80;1.35;;;14.90;60.70;;;;;;4914750;29;20043;-78
2022/08/06 04:58:18;;;;;;;3.03;1.35;;;14.80;61.10;;;;;;4919404;29;20035;-78
2022/08/06 05:00:46;;;;;;;3.25;1.33;;;14.80;60.60;;;;;;4909103;29;20120;-78
2022/08/06 05:03:12;;;;;;;4.10;1.40;;;14.80;60.80;;;;;;4900641;29;20049;-78
2022/08/06 05:05:42;;;;;;;1.83;1.10;;;14.80;61.00;;;;;;4900595;29;20085;-78
2022/08/06 05:08:10;;;;;;;2.08;1.00;;;14.80;60.90;;;;;;4900906;29;20024;-78
2022/08/06 05:10:44;;;;;;;3.33;1.20;;;14.80;61.10;;;;;;4906128;29;20043;-77
2022/08/06 05:13:13;;;;;;;5.70;1.23;;;14.80;61.30;;;;;;4900409;29;20417;-77
2022/08/06 05:15:42;;;;;;;2.78;1.40;;;14.80;61.10;;;;;;4914444;29;20068;-77
2022/08/06 05:18:20;;;;;;;3.05;1.25;;;14.80;61.60;;;;;;4900672;29;20063;-78
2022/08/06 05:20:51;;;;;;;2.40;1.00;;;14.70;62.10;;;;;;4900382;29;20028;-78
2022/08/06 05:23:29;;;;;;;2.65;1.17;;;14.70;62.50;;;;;;4900484;29;20385;-77
2022/08/06 05:25:55;;;;;;;3.70;1.40;;;14.80;62.70;;;;;;4915026;29;20056;-78
2022/08/06 05:28:21;;;;;;;4.72;1.63;;;14.70;63.10;;;;;;4910372;29;20404;-77
2022/08/06 05:30:50;;;;;;;3.53;1.55;;;14.70;63.20;;;;;;4900264;29;20064;-78
2022/08/06 05:33:42;;;;;;;3.43;1.30;;;14.70;63.60;;;;;;4900429;29;20036;-78
2022/08/06 05:36:12;;;;;;;1.20;0.82;;;14.80;63.60;;;;;;4899218;29;20040;-78
2022/08/06 05:38:39;;;;;;;3.75;1.40;;;14.80;64.00;;;;;;4899296;29;20064;-78
2022/08/06 05:41:07;;;;;;;1.80;0.98;;;14.80;64.20;;;;;;4909370;29;20097;-78
2022/08/06 05:43:33;;;;;;;3.58;1.08;;;14.70;65.30;;;;;;4918112;29;20548;-77
2022/08/06 05:46:04;;;;;;;3.85;1.38;;;14.70;65.20;;;;;;4907433;29;20097;-78
2022/08/06 05:48:34;;;;;;;1.83;1.15;;;14.80;65.30;;;;;;4900160;29;20069;-78
2022/08/06 05:51:07;;;;;;;1.70;1.13;;;14.90;65.10;;;;;;4899884;29;20029;-77
2022/08/06 05:53:42;;;;;;;4.47;1.50;;;14.90;65.50;;;;;;4900200;29;20041;-79
2022/08/06 05:56:12;;;;;;;3.13;1.50;;;14.90;65.60;;;;;;4900281;29;20025;-77
2022/08/06 05:59:01;;;;;;;3.47;1.50;;;14.90;66.60;;;;;;4900212;29;20504;-77
2022/08/06 06:01:28;;;;;;;3.30;1.63;;;14.90;66.70;;;;;;4899768;29;20057;-78
2022/08/06 06:03:55;;;;;;;7.85;2.38;;;15.00;67.00;;;;;;4899956;29;20037;-78
2022/08/06 06:06:22;;;;;;;3.08;1.60;;;15.00;67.70;;;;;;4899916;29;20064;-77
2022/08/06 06:08:48;;;;;;;3.95;1.40;;;15.00;68.70;;;;;;4899956;29;20087;-78
2022/08/06 06:11:14;;;;;;;2.35;1.40;;;15.00;68.40;;;;;;4921619;29;20035;-76
2022/08/06 06:13:41;;;;;;;3.33;1.35;;;15.10;68.30;;;;;;4901552;29;20043;-78
2022/08/06 06:16:22;;;;;;;4.93;1.58;;;15.20;67.70;;;;;;4916918;29;20029;-76
2022/08/06 06:18:48;;;;;;;6.80;1.92;;;15.30;67.90;;;;;;4899904;29;20087;-77
2022/08/06 06:21:32;;;;;;;7.75;1.48;;;15.30;68.30;;;;;;4899941;29;20076;-77
2022/08/06 06:24:13;;;;;;;2.45;1.30;;;15.40;68.70;;;;;;4898469;29;20037;-76
2022/08/06 06:27:00;;;;;;;7.28;2.30;;;15.40;68.90;;;;;;4902543;29;20029;-77
2022/08/06 06:29:38;;;;;;;2.90;1.60;;;15.50;68.80;;;;;;4903369;29;20024;-76
2022/08/06 06:32:18;;;;;;;4.10;1.52;;;15.60;68.50;;;;;;4901874;29;20085;-77
2022/08/06 06:34:57;;;;;;;3.95;1.20;;;15.70;69.00;;;;;;4903403;29;20029;-77
2022/08/06 06:37:45;;;;;;;6.07;1.23;;;15.70;69.10;;;;;;4902392;29;20028;-78
2022/08/06 06:40:21;;;;;;;3.85;1.33;;;15.80;70.00;;;;;;4904730;29;20068;-78
2022/08/06 06:42:56;;;;;;;3.22;1.42;;;15.80;69.80;;;;;;4919496;29;20070;-77
2022/08/06 06:45:45;;;;;;;4.25;1.48;;;15.90;68.60;;;;;;4936565;29;20043;-78
2022/08/06 06:48:21;;;;;;;5.03;1.30;;;15.90;69.40;;;;;;4918886;29;20060;-80
2022/08/06 06:50:52;;;;;;;4.97;1.17;;;16.00;70.40;;;;;;4921008;29;20028;-78
2022/08/06 06:53:19;;;;;;;3.50;1.73;;;16.10;70.80;;;;;;4916258;29;20032;-77
2022/08/06 06:55:48;;;;;;;3.75;1.17;;;16.10;71.50;;;;;;4920421;29;20068;-78
2022/08/06 06:58:26;;;;;;;1.30;0.90;;;16.20;69.80;;;;;;4916399;29;20079;-77
2022/08/06 07:00:53;;;;;;;2.45;1.60;;;16.30;69.70;;;;;;4902694;29;20032;-77
2022/08/06 07:03:20;;;;;;;4.10;1.25;;;16.30;69.20;;;;;;4902777;29;20040;-77
2022/08/06 07:05:48;;;;;;;1.40;0.75;;;16.40;68.60;;;;;;4917442;29;20037;-78
2022/08/06 07:08:17;;;;;;;5.03;0.93;;;16.50;68.00;;;;;;4902788;29;20064;-78
2022/08/06 07:10:44;;;;;;;3.78;1.20;;;16.70;66.50;;;;;;4934856;29;20031;-78
2022/08/06 07:13:11;;;;;;;2.05;0.98;;;16.80;66.10;;;;;;4949633;29;20024;-77
2022/08/06 07:15:40;;;;;;;6.90;1.10;;;16.90;65.00;;;;;;4902752;29;20033;-77
2022/08/06 07:18:06;;;;;;;2.90;0.77;;;17.10;64.30;;;;;;4902596;29;20036;-77
2022/08/06 07:20:33;;;;;;;2.05;0.85;;;17.70;62.20;;;;;;4902403;29;20032;-77
2022/08/06 07:23:02;;;;;;;3.38;0.63;;;19.50;57.50;;;;;;4902543;29;20032;-78
2022/08/06 07:25:28;;;;;;;2.63;0.77;;;23.20;48.50;;;;;;4902511;29;20052;-78
2022/08/06 07:27:54;;;;;;;1.90;0.60;;;26.10;41.10;;;;;;4902342;29;20093;-78
2022/08/06 07:30:21;;;;;;;3.25;0.68;;;28.40;36.40;;;;;;4902491;29;20556;-78
2022/08/06 07:32:48;;;;;;;3.88;0.65;;;30.30;32.20;;;;;;4902412;29;20025;-79
2022/08/06 07:35:16;;;;;;;1.95;0.90;;;31.50;30.40;;;;;;4912548;29;20719;-78
2022/08/06 07:37:48;;;;;;;1.48;0.47;;;32.20;28.10;;;;;;4920405;29;20158;-79
2022/08/06 07:40:25;;;;;;;2.45;0.30;;;32.60;26.40;;;;;;4921142;29;20028;-79
2022/08/06 07:42:54;;;;;;;4.93;0.77;;;33.20;25.00;;;;;;4917349;29;20032;-79
2022/08/06 07:45:21;;;;;;;;;;;33.00;24.70;;;;;;4902831;29;20060;-78
2022/08/06 07:47:49;;;;;;;1.65;0.52;;;33.60;24.60;;;;;;4902137;29;19911;-77
2022/08/06 07:50:15;;;;;;;3.72;0.45;;;33.90;23.40;;;;;;4902004;29;20035;-77
2022/08/06 07:52:42;;;;;;;2.65;0.50;;;34.20;24.30;;;;;;4916613;29;20033;-77
2022/08/06 07:55:12;;;;;;;1.70;0.38;;;34.20;22.60;;;;;;4916807;29;20044;-78
2022/08/06 07:57:39;;;;;;;1.67;0.50;;;34.80;22.70;;;;;;4916530;29;20029;-77
2022/08/06 08:00:05;;;;;;;1.65;0.40;;;35.40;22.20;;;;;;4901396;29;20902;-77
2022/08/06 08:02:31;;;;;;;2.60;0.55;;;35.80;21.70;;;;;;4901898;29;20058;-77
2022/08/06 08:07:42;;;;;;;2.22;0.50;;;36.50;20.50;;;;;;4901853;29;20169;-77
2022/08/06 08:10:09;;;;;;;1.60;1.05;;;36.70;19.90;;;;;;4904515;29;20029;-77
2022/08/06 08:12:36;;;;;;;1.88;0.52;;;37.00;20.20;;;;;;4902039;29;20029;-77
2022/08/06 08:15:06;;;;;;;1.50;0.40;;;37.60;20.20;;;;;;4901509;29;20077;-77
2022/08/06 08:17:32;;;;;;;2.47;0.38;;;37.80;19.80;;;;;;4901264;29;20073;-77
2022/08/06 08:20:03;;;;;;;2.13;0.70;;;37.80;19.00;;;;;;4901565;29;20025;-77
2022/08/06 08:22:29;;;;;;;3.13;0.75;;;37.80;18.80;;;;;;4915128;29;20071;-77
2022/08/06 08:24:55;;;;;;;1.25;0.32;;;38.30;18.80;;;;;;4901374;29;20020;-77
2022/08/06 08:27:21;;;;;;;2.72;0.65;;;38.60;18.60;;;;;;4916110;29;20033;-77
2022/08/06 08:29:46;;;;;;;1.35;0.40;;;38.80;18.20;;;;;;4915742;29;20021;-77
2022/08/06 08:32:12;;;;;;;3.58;0.57;;;39.00;17.60;;;;;;4901282;29;20084;-77
2022/08/06 08:34:38;;;;;;;1.42;0.50;;;39.30;17.60;;;;;;4901223;29;20060;-77
2022/08/06 08:37:04;;;;;;;1.40;0.50;;;39.70;18.10;;;;;;4915749;29;20591;-77
2022/08/06 08:39:30;;;;;;;2.85;0.50;;;40.00;18.10;;;;;;4900982;29;20032;-77
2022/08/06 08:42:17;;;;;;;1.75;0.40;;;40.00;17.70;;;;;;4901208;29;20024;-77
2022/08/06 08:44:46;;;;;;;4.50;0.57;;;40.20;17.40;;;;;;4900938;29;20028;-77
2022/08/06 08:47:13;;;;;;;2.40;0.75;;;40.30;17.40;;;;;;4900873;29;20040;-77
2022/08/06 08:49:47;;;;;;;3.72;0.65;;;40.40;17.10;;;;;;4900349;29;20032;-77
2022/08/06 08:52:19;;;;;;;2.65;0.40;;;40.10;16.80;;;;;;4901302;29;20099;-77
2022/08/06 08:54:49;;;;;;;2.53;0.60;;;39.90;16.90;;;;;;4900458;29;20485;-77
2022/08/06 08:57:16;;;;;;;4.07;0.80;;;40.60;16.90;;;;;;4901063;29;20029;-78
2022/08/06 08:59:42;;;;;;;2.15;0.60;;;40.80;16.80;;;;;;4900849;29;20115;-77
2022/08/06 09:02:12;;;;;;;1.75;0.60;;;40.80;16.40;;;;;;4915129;29;20065;-82
2022/08/06 09:04:39;;;;;;;0.75;0.30;;;40.60;15.90;;;;;;4901054;29;20036;-83
2022/08/06 09:07:07;;;;;;;2.67;0.60;;;40.50;16.10;;;;;;4900626;29;20095;-79
2022/08/06 09:09:34;;;;;;;2.13;0.35;;;40.40;16.00;;;;;;4923540;29;20019;-79
2022/08/06 09:12:01;;;;;;;1.90;0.40;;;40.30;15.50;;;;;;4938570;29;20051;-81
2022/08/06 09:14:26;;;;;;;1.98;0.38;;;40.40;15.20;;;;;;4933749;29;20036;-79
2022/08/06 09:16:52;;;;;;;3.92;0.60;;;40.50;14.50;;;;;;4900509;29;20032;-79
2022/08/06 09:19:18;;;;;;;1.65;0.32;;;40.30;15.20;;;;;;4900557;29;20036;-78
2022/08/06 09:21:44;;;;;;;3.90;0.47;;;40.40;15.60;;;;;;4900351;29;20412;-79
2022/08/06 09:24:10;;;;;;;2.90;1.60;;;40.10;15.30;;;;;;4900168;29;20047;-81
2022/08/06 09:26:36;;;;;;;1.17;0.30;;;40.30;14.90;;;;;;4900153;29;20453;-79
2022/08/06 09:29:14;;;;;;;6.03;0.60;;;40.30;14.50;;;;;;4900297;29;20036;-81
2022/08/06 09:31:40;;;;;;;2.50;0.50;;;39.90;13.50;;;;;;4900259;29;20480;-78
2022/08/06 09:34:06;;;;;;;1.70;0.45;;;40.00;14.20;;;;;;4900275;29;20412;-76
2022/08/06 09:36:46;;;;;;;2.40;1.25;;;40.20;14.40;;;;;;4900012;29;20029;-75
2022/08/06 09:39:13;;;;;;;1.92;0.32;;;40.40;14.00;;;;;;4899200;29;20145;-76
2022/08/06 09:41:50;;;;;;;4.07;0.85;;;40.70;14.10;;;;;;4914685;29;20184;-76
2022/08/06 09:44:16;;;;;;;2.60;0.40;;;41.00;13.70;;;;;;4899989;29;20073;-75
2022/08/06 09:46:41;;;;;;;2.53;0.40;;;40.80;13.90;;;;;;4899777;29;20100;-75
2022/08/06 09:49:10;;;;;;;1.23;0.40;;;40.30;13.90;;;;;;4900378;29;20108;-77
2022/08/06 09:51:37;;;;;;;1.10;0.63;;;40.20;14.10;;;;;;4900224;29;20520;-79
2022/08/06 09:54:05;;;;;;;2.47;0.60;;;40.00;13.50;;;;;;4900035;29;20029;-78
2022/08/06 09:56:32;;;;;;;2.70;0.50;;;40.10;13.40;;;;;;4900188;29;20025;-81
2022/08/06 09:59:04;;;;;;;1.85;0.77;;;40.40;13.50;;;;;;4900118;29;20029;-78
2022/08/06 10:01:37;;;;;;;1.42;0.43;;;40.70;13.20;;;;;;4902759;29;20064;-78
2022/08/06 10:04:03;;;;;;;1.35;0.30;;;40.30;12.80;;;;;;4903440;29;20041;-78
2022/08/06 10:06:28;;;;;;;2.47;0.70;;;40.50;13.50;;;;;;4918348;29;20037;-78
2022/08/06 10:09:09;;;;;;;0.88;0.30;;;40.10;13.10;;;;;;4904026;29;20484;-79
2022/08/06 10:11:38;;;;;;;0.85;0.43;;;40.30;13.40;;;;;;4903846;29;20107;-81
2022/08/06 10:14:03;;;;;;;0.95;0.45;;;40.40;13.60;;;;;;4918350;29;20104;-78
2022/08/06 10:16:30;;;;;;;1.73;0.57;;;40.30;12.60;;;;;;4903757;29;20078;-81
2022/08/06 10:18:57;;;;;;;3.15;0.57;;;39.80;12.70;;;;;;4903749;29;20027;-78
2022/08/06 10:21:29;;;;;;;1.13;0.55;;;39.00;13.40;;;;;;4917057;29;20048;-79
2022/08/06 10:24:03;;;;;;;1.38;0.50;;;39.00;14.10;;;;;;4903450;29;20037;-78
2022/08/06 10:26:31;;;;;;;1.30;0.80;;;39.30;14.30;;;;;;4918156;29;20119;-79
2022/08/06 10:29:01;;;;;;;;;;;39.30;13.60;;;;;;4918721;29;20106;-81
2022/08/06 10:31:27;;;;;;;1.10;0.50;;;39.20;14.10;;;;;;4903520;29;19911;-79
2022/08/06 10:34:10;;;;;;;2.75;0.70;;;38.70;14.10;;;;;;4903296;29;20548;-76
2022/08/06 10:36:49;;;;;;;1.27;0.47;;;38.10;14.20;;;;;;4905797;29;20062;-78
2022/08/06 10:39:15;;;;;;;3.38;0.40;;;37.40;15.10;;;;;;4911951;29;20044;-81
2022/08/06 10:41:43;;;;;;;2.28;0.40;;;36.30;15.10;;;;;;4903463;29;20802;-77
2022/08/06 10:44:11;;;;;;;2.47;0.50;;;35.30;16.50;;;;;;4922434;29;20071;-81
2022/08/06 10:46:36;;;;;;;2.65;0.80;;;34.30;16.70;;;;;;4926550;29;20036;-79
2022/08/06 10:49:05;;;;;;;37.28;11.43;;;33.60;17.70;;;;;;4922510;29;20075;-80
2022/08/06 10:51:31;;;;;;;20.90;12.25;;;33.20;18.30;;;;;;4917011;29;20028;-80
2022/08/06 10:53:57;;;;;;;2.33;0.70;;;32.70;17.70;;;;;;4903759;29;20092;-79
2022/08/06 10:56:25;;;;;;;1.13;0.32;;;32.30;18.90;;;;;;4903287;29;20496;-83
2022/08/06 10:58:51;;;;;;;1.17;0.28;;;31.80;18.90;;;;;;4918090;29;20032;-79
2022/08/06 11:01:34;;;;;;;1.45;0.52;;;31.60;19.40;;;;;;4903233;29;20078;-79
2022/08/06 11:04:29;;;;;;;1.73;0.50;;;31.50;20.20;;;;;;4903325;29;20123;-79
2022/08/06 11:07:37;;;;;;;2.40;0.50;;;31.40;20.40;;;;;;4911912;29;20067;-76
2022/08/06 11:10:55;;;;;;;1.10;0.25;;;31.20;19.30;;;;;;4921208;29;20111;-84
2022/08/06 11:13:36;;;;;;;1.52;0.43;;;30.80;19.60;;;;;;4884339;29;20119;-80
2022/08/06 11:16:03;;;;;;;2.10;0.50;;;30.40;20.10;;;;;;4884401;29;20060;-80
2022/08/06 11:18:29;;;;;;;1.50;0.40;;;30.30;20.10;;;;;;4915229;29;20364;-90
2022/08/06 11:20:58;;;;;;;1.33;0.30;;;29.80;21.10;;;;;;4920751;29;20149;-77
2022/08/06 11:23:29;;;;;;;1.90;0.35;;;29.90;21.10;;;;;;4905369;29;20036;-81
2022/08/06 11:26:00;;;;;;;1.63;0.63;;;29.80;20.70;;;;;;4905698;29;20037;-82
2022/08/06 11:28:32;;;;;;;2.65;1.00;;;29.70;20.30;;;;;;4933738;29;20028;-83
2022/08/06 11:31:00;;;;;;;1.30;0.40;;;29.60;20.80;;;;;;4921654;29;20067;-84
2022/08/06 11:33:35;;;;;;;1.55;0.30;;;29.60;20.90;;;;;;4926228;29;20407;-84
2022/08/06 11:36:05;;;;;;;2.33;0.45;;;29.60;20.50;;;;;;4916679;29;20092;-81
2022/08/06 11:38:46;;;;;;;1.27;0.40;;;29.50;20.70;;;;;;4918454;29;20032;-81
2022/08/06 11:41:27;;;;;;;1.70;0.40;;;29.30;20.50;;;;;;4917928;29;20040;-81
2022/08/06 11:43:53;;;;;;;4.18;0.60;;;29.30;21.20;;;;;;4917708;29;20031;-81
2022/08/06 11:46:28;;;;;;;2.50;0.30;;;29.10;21.40;;;;;;4920015;29;20039;-81
2022/08/06 11:48:57;;;;;;;3.05;0.50;;;29.20;21.20;;;;;;4916247;29;20111;-81
2022/08/06 11:51:49;;;;;;;1.58;0.25;;;29.20;21.30;;;;;;4920213;29;20067;-81
2022/08/06 11:54:17;;;;;;;2.65;0.40;;;29.30;21.60;;;;;;4917030;29;20444;-81
2022/08/06 11:57:01;;;;;;;1.00;0.22;;;29.30;22.00;;;;;;4919424;29;20028;-81
2022/08/06 11:59:35;;;;;;;0.95;0.40;;;29.30;21.40;;;;;;4917944;29;20059;-81
2022/08/06 12:02:04;;;;;;;1.00;0.20;;;28.80;21.20;;;;;;4919980;29;20052;-81
2022/08/06 12:04:35;;;;;;;1.33;0.20;;;28.80;22.20;;;;;;4917109;29;20043;-81
2022/08/06 12:07:23;;;;;;;3.88;0.40;;;28.80;21.90;;;;;;4919740;29;20024;-81
2022/08/06 12:10:01;;;;;;;1.95;0.20;;;29.00;21.50;;;;;;4919215;29;20448;-80
2022/08/06 12:12:32;;;;;;;1.15;0.35;;;29.00;21.90;;;;;;4920695;29;20048;-80
2022/08/06 12:15:28;;;;;;;1.50;0.35;;;29.00;21.50;;;;;;4910588;29;20033;-81
2022/08/06 12:17:54;;;;;;;1.23;0.40;;;28.90;22.00;;;;;;4915931;29;20460;-81
2022/08/06 12:20:39;;;;;;;2.05;0.30;;;29.10;22.30;;;;;;4916367;29;20037;-81
2022/08/06 12:23:07;;;;;;;1.25;0.43;;;29.20;21.70;;;;;;4901122;29;20031;-80
2022/08/06 12:25:55;;;;;;;1.25;0.30;;;29.10;22.10;;;;;;4901490;29;20047;-80
2022/08/06 12:28:22;;;;;;;2.75;0.30;;;29.20;22.10;;;;;;4907114;29;20056;-80
2022/08/06 12:30:53;;;;;;;0.30;0.13;;;29.10;21.60;;;;;;4918306;29;20048;-81
2022/08/06 12:33:21;;;;;;;1.55;0.30;;;29.00;21.60;;;;;;4918903;29;20036;-81
2022/08/06 12:35:58;;;;;;;0.88;0.28;;;28.80;21.80;;;;;;4919828;29;20020;-81
2022/08/06 12:38:27;;;;;;;0.95;0.20;;;28.80;22.20;;;;;;4868789;29;20107;-80
2022/08/06 12:40:56;;;;;;;1.42;0.30;;;28.90;21.90;;;;;;4910041;29;20036;-84
2022/08/06 12:43:23;;;;;;;1.02;0.22;;;28.80;21.90;;;;;;4918551;29;20020;-80
2022/08/06 12:45:56;;;;;;;0.50;0.20;;;29.00;21.90;;;;;;4919441;29;20101;-80
2022/08/06 12:48:22;;;;;;;1.85;0.30;;;29.00;22.00;;;;;;4915302;29;20024;-81
2022/08/06 12:50:48;;;;;;;1.25;0.30;;;29.10;21.50;;;;;;4919549;29;20035;-81
2022/08/06 12:53:18;;;;;;;3.85;0.30;;;29.00;22.10;;;;;;4918750;29;20492;-81
2022/08/06 12:55:48;;;;;;;0.82;0.30;;;29.00;22.50;;;;;;4926521;29;20033;-80
2022/08/06 12:58:19;;;;;;;2.70;0.30;;;29.00;22.00;;;;;;4901015;29;20032;-80
2022/08/06 13:00:49;;;;;;;0.50;0.20;;;28.90;22.10;;;;;;4899592;29;20038;-80
2022/08/06 13:03:16;;;;;;;0.73;0.30;;;28.80;22.50;;;;;;4900564;29;20056;-80
2022/08/06 13:05:43;;;;;;;1.15;0.30;;;28.90;22.70;;;;;;4900185;29;20051;-80
2022/08/06 13:08:10;;;;;;;1.08;0.22;;;29.00;22.40;;;;;;4900981;29;20024;-80